sensor_id;sensor_type;location;lat;lon;timestamp;P1;durP1;ratioP1;P2;durP2;ratioP2
54261;SDS011;40174;52.364;6.452;2023-10-19T00:02:04;8.43;;;3.60;;
54261;SDS011;40174;52.364;6.452;2023-10-19T00:04:39;14.10;;;4.47;;
54261;SDS011;40174;52.364;6.452;2023-10-19T00:07:05;10.98;;;4.05;;
54261;SDS011;40174;52.364;6.452;2023-10-19T00:09:33;11.13;;;4.68;;
54261;SDS011;40174;52.364;6.452;2023-10-19T00:12:02;11.32;;;4.60;;
54261;SDS011;40174;52.364;6.452;2023-10-19T00:14:31;14.13;;;4.40;;
54261;SDS011;40174;52.364;6.452;2023-10-19T00:16:58;10.10;;;4.35;;
54261;SDS011;40174;52.364;6.452;2023-10-19T00:19:31;10.10;;;4.43;;
54261;SDS011;40174;52.364;6.452;2023-10-19T00:22:05;11.65;;;4.28;;
54261;SDS011;40174;52.364;6.452;2023-10-19T00:24:46;9.60;;;4.43;;
54261;SDS011;40174;52.364;6.452;2023-10-19T00:27:11;11.00;;;3.67;;
54261;SDS011;40174;52.364;6.452;2023-10-19T00:29:43;13.55;;;5.00;;
54261;SDS011;40174;52.364;6.452;2023-10-19T00:32:15;11.80;;;4.28;;
54261;SDS011;40174;52.364;6.452;2023-10-19T00:34:43;10.15;;;4.32;;
54261;SDS011;40174;52.364;6.452;2023-10-19T00:37:18;11.05;;;4.00;;
54261;SDS011;40174;52.364;6.452;2023-10-19T00:39:51;14.43;;;4.72;;
54261;SDS011;40174;52.364;6.452;2023-10-19T00:42:20;7.30;;;3.92;;
54261;SDS011;40174;52.364;6.452;2023-10-19T00:44:51;10.75;;;4.75;;
54261;SDS011;40174;52.364;6.452;2023-10-19T00:47:25;11.25;;;4.40;;
54261;SDS011;40174;52.364;6.452;2023-10-19T00:49:55;10.88;;;4.25;;
54261;SDS011;40174;52.364;6.452;2023-10-19T00:52:30;10.77;;;4.05;;
54261;SDS011;40174;52.364;6.452;2023-10-19T00:55:07;12.43;;;4.18;;
54261;SDS011;40174;52.364;6.452;2023-10-19T00:57:39;11.80;;;4.40;;
54261;SDS011;40174;52.364;6.452;2023-10-19T01:00:12;11.23;;;4.18;;
54261;SDS011;40174;52.364;6.452;2023-10-19T01:02:47;9.35;;;3.70;;
54261;SDS011;40174;52.364;6.452;2023-10-19T01:05:16;9.15;;;4.10;;
54261;SDS011;40174;52.364;6.452;2023-10-19T01:07:48;10.75;;;4.57;;
54261;SDS011;40174;52.364;6.452;2023-10-19T01:12:50;7.85;;;3.67;;
54261;SDS011;40174;52.364;6.452;2023-10-19T01:15:18;14.65;;;4.88;;
54261;SDS011;40174;52.364;6.452;2023-10-19T01:17:49;15.07;;;4.53;;
54261;SDS011;40174;52.364;6.452;2023-10-19T01:20:19;9.60;;;4.05;;
54261;SDS011;40174;52.364;6.452;2023-10-19T01:22:50;13.38;;;4.70;;
54261;SDS011;40174;52.364;6.452;2023-10-19T01:25:32;11.40;;;4.53;;
54261;SDS011;40174;52.364;6.452;2023-10-19T01:28:02;9.27;;;4.53;;
54261;SDS011;40174;52.364;6.452;2023-10-19T01:30:34;10.95;;;4.53;;
54261;SDS011;40174;52.364;6.452;2023-10-19T01:33:01;10.07;;;4.57;;
54261;SDS011;40174;52.364;6.452;2023-10-19T01:35:29;9.05;;;4.45;;
54261;SDS011;40174;52.364;6.452;2023-10-19T01:38:18;11.13;;;4.72;;
54261;SDS011;40174;52.364;6.452;2023-10-19T01:40:44;12.75;;;4.60;;
54261;SDS011;40174;52.364;6.452;2023-10-19T01:43:13;10.63;;;4.95;;
54261;SDS011;40174;52.364;6.452;2023-10-19T01:45:46;15.63;;;5.07;;
54261;SDS011;40174;52.364;6.452;2023-10-19T01:48:14;8.93;;;4.43;;
54261;SDS011;40174;52.364;6.452;2023-10-19T01:50:41;12.15;;;5.80;;
54261;SDS011;40174;52.364;6.452;2023-10-19T01:53:08;12.10;;;4.75;;
54261;SDS011;40174;52.364;6.452;2023-10-19T01:55:42;12.30;;;4.90;;
54261;SDS011;40174;52.364;6.452;2023-10-19T01:58:12;12.57;;;5.22;;
54261;SDS011;40174;52.364;6.452;2023-10-19T02:00:39;11.45;;;4.85;;
54261;SDS011;40174;52.364;6.452;2023-10-19T02:03:08;10.75;;;4.95;;
54261;SDS011;40174;52.364;6.452;2023-10-19T02:05:34;12.05;;;4.43;;
54261;SDS011;40174;52.364;6.452;2023-10-19T02:08:07;8.35;;;3.70;;
54261;SDS011;40174;52.364;6.452;2023-10-19T02:10:33;7.78;;;3.88;;
54261;SDS011;40174;52.364;6.452;2023-10-19T02:13:02;13.20;;;4.30;;
54261;SDS011;40174;52.364;6.452;2023-10-19T02:15:32;8.45;;;3.50;;
54261;SDS011;40174;52.364;6.452;2023-10-19T02:18:01;13.27;;;4.82;;
54261;SDS011;40174;52.364;6.452;2023-10-19T02:20:28;9.52;;;4.07;;
54261;SDS011;40174;52.364;6.452;2023-10-19T02:22:57;9.68;;;4.10;;
54261;SDS011;40174;52.364;6.452;2023-10-19T02:25:29;12.25;;;4.78;;
54261;SDS011;40174;52.364;6.452;2023-10-19T02:28:02;10.15;;;4.45;;
54261;SDS011;40174;52.364;6.452;2023-10-19T02:30:29;9.63;;;3.88;;
54261;SDS011;40174;52.364;6.452;2023-10-19T02:32:56;9.43;;;4.10;;
54261;SDS011;40174;52.364;6.452;2023-10-19T02:35:22;10.40;;;4.60;;
54261;SDS011;40174;52.364;6.452;2023-10-19T02:37:50;9.30;;;4.10;;
54261;SDS011;40174;52.364;6.452;2023-10-19T02:40:16;7.22;;;4.68;;
54261;SDS011;40174;52.364;6.452;2023-10-19T02:42:46;14.02;;;4.53;;
54261;SDS011;40174;52.364;6.452;2023-10-19T02:45:14;13.85;;;5.15;;
54261;SDS011;40174;52.364;6.452;2023-10-19T02:47:43;9.60;;;4.57;;
54261;SDS011;40174;52.364;6.452;2023-10-19T02:50:09;11.80;;;5.82;;
54261;SDS011;40174;52.364;6.452;2023-10-19T02:52:39;12.63;;;5.32;;
54261;SDS011;40174;52.364;6.452;2023-10-19T02:55:06;11.00;;;4.72;;
54261;SDS011;40174;52.364;6.452;2023-10-19T02:57:34;10.43;;;4.93;;
54261;SDS011;40174;52.364;6.452;2023-10-19T03:00:01;11.93;;;4.93;;
54261;SDS011;40174;52.364;6.452;2023-10-19T03:02:35;13.65;;;4.95;;
54261;SDS011;40174;52.364;6.452;2023-10-19T03:05:02;9.88;;;4.38;;
54261;SDS011;40174;52.364;6.452;2023-10-19T03:07:37;13.98;;;5.78;;
54261;SDS011;40174;52.364;6.452;2023-10-19T03:10:04;9.13;;;4.43;;
54261;SDS011;40174;52.364;6.452;2023-10-19T03:12:32;15.10;;;6.18;;
54261;SDS011;40174;52.364;6.452;2023-10-19T03:14:58;12.82;;;5.78;;
54261;SDS011;40174;52.364;6.452;2023-10-19T03:17:28;11.93;;;5.95;;
54261;SDS011;40174;52.364;6.452;2023-10-19T03:19:57;13.65;;;5.93;;
54261;SDS011;40174;52.364;6.452;2023-10-19T03:22:24;12.85;;;5.93;;
54261;SDS011;40174;52.364;6.452;2023-10-19T03:24:52;15.55;;;6.63;;
54261;SDS011;40174;52.364;6.452;2023-10-19T03:27:40;14.95;;;6.38;;
54261;SDS011;40174;52.364;6.452;2023-10-19T03:30:10;12.02;;;6.47;;
54261;SDS011;40174;52.364;6.452;2023-10-19T03:32:41;15.75;;;6.32;;
54261;SDS011;40174;52.364;6.452;2023-10-19T03:35:09;15.77;;;6.53;;
54261;SDS011;40174;52.364;6.452;2023-10-19T03:37:41;11.05;;;5.63;;
54261;SDS011;40174;52.364;6.452;2023-10-19T03:40:08;12.98;;;6.18;;
54261;SDS011;40174;52.364;6.452;2023-10-19T03:42:41;14.82;;;7.13;;
54261;SDS011;40174;52.364;6.452;2023-10-19T03:45:12;14.52;;;6.43;;
54261;SDS011;40174;52.364;6.452;2023-10-19T03:47:39;14.95;;;7.40;;
54261;SDS011;40174;52.364;6.452;2023-10-19T03:50:11;15.25;;;7.03;;
54261;SDS011;40174;52.364;6.452;2023-10-19T03:52:45;15.05;;;6.15;;
54261;SDS011;40174;52.364;6.452;2023-10-19T03:55:12;14.35;;;6.53;;
54261;SDS011;40174;52.364;6.452;2023-10-19T03:57:43;16.58;;;6.90;;
54261;SDS011;40174;52.364;6.452;2023-10-19T04:00:16;17.23;;;7.00;;
54261;SDS011;40174;52.364;6.452;2023-10-19T04:02:44;15.55;;;7.32;;
54261;SDS011;40174;52.364;6.452;2023-10-19T04:05:13;16.70;;;7.45;;
54261;SDS011;40174;52.364;6.452;2023-10-19T04:07:45;13.52;;;6.32;;
54261;SDS011;40174;52.364;6.452;2023-10-19T04:10:15;13.75;;;6.60;;
54261;SDS011;40174;52.364;6.452;2023-10-19T04:12:57;16.98;;;6.57;;
54261;SDS011;40174;52.364;6.452;2023-10-19T04:15:27;17.15;;;7.43;;
54261;SDS011;40174;52.364;6.452;2023-10-19T04:17:59;16.58;;;7.22;;
54261;SDS011;40174;52.364;6.452;2023-10-19T04:20:28;19.58;;;7.82;;
54261;SDS011;40174;52.364;6.452;2023-10-19T04:23:07;17.88;;;7.40;;
54261;SDS011;40174;52.364;6.452;2023-10-19T04:25:39;16.50;;;7.60;;
54261;SDS011;40174;52.364;6.452;2023-10-19T04:28:07;15.43;;;7.75;;
54261;SDS011;40174;52.364;6.452;2023-10-19T04:30:35;18.35;;;8.30;;
54261;SDS011;40174;52.364;6.452;2023-10-19T04:33:03;17.38;;;7.88;;
54261;SDS011;40174;52.364;6.452;2023-10-19T04:35:36;18.67;;;8.05;;
54261;SDS011;40174;52.364;6.452;2023-10-19T04:38:03;15.75;;;7.32;;
54261;SDS011;40174;52.364;6.452;2023-10-19T04:40:32;12.30;;;6.75;;
54261;SDS011;40174;52.364;6.452;2023-10-19T04:43:01;16.67;;;7.82;;
54261;SDS011;40174;52.364;6.452;2023-10-19T04:45:30;20.42;;;8.07;;
54261;SDS011;40174;52.364;6.452;2023-10-19T04:47:58;15.63;;;7.00;;
54261;SDS011;40174;52.364;6.452;2023-10-19T04:50:25;15.23;;;7.43;;
54261;SDS011;40174;52.364;6.452;2023-10-19T04:52:53;14.77;;;7.47;;
54261;SDS011;40174;52.364;6.452;2023-10-19T04:55:21;15.75;;;7.20;;
54261;SDS011;40174;52.364;6.452;2023-10-19T04:57:48;15.40;;;7.10;;
54261;SDS011;40174;52.364;6.452;2023-10-19T05:00:16;20.95;;;7.03;;
54261;SDS011;40174;52.364;6.452;2023-10-19T05:02:46;13.80;;;6.55;;
54261;SDS011;40174;52.364;6.452;2023-10-19T05:05:13;16.65;;;7.57;;
54261;SDS011;40174;52.364;6.452;2023-10-19T05:07:42;18.95;;;7.20;;
54261;SDS011;40174;52.364;6.452;2023-10-19T05:10:11;17.02;;;7.15;;
54261;SDS011;40174;52.364;6.452;2023-10-19T05:12:39;16.05;;;6.53;;
54261;SDS011;40174;52.364;6.452;2023-10-19T05:15:06;13.70;;;6.78;;
54261;SDS011;40174;52.364;6.452;2023-10-19T05:17:34;19.88;;;7.60;;
54261;SDS011;40174;52.364;6.452;2023-10-19T05:20:01;17.58;;;7.03;;
54261;SDS011;40174;52.364;6.452;2023-10-19T05:22:30;18.67;;;8.30;;
54261;SDS011;40174;52.364;6.452;2023-10-19T05:24:58;18.05;;;7.78;;
54261;SDS011;40174;52.364;6.452;2023-10-19T05:27:27;20.13;;;7.97;;
54261;SDS011;40174;52.364;6.452;2023-10-19T05:29:55;18.83;;;8.02;;
54261;SDS011;40174;52.364;6.452;2023-10-19T05:32:24;14.40;;;7.18;;
54261;SDS011;40174;52.364;6.452;2023-10-19T05:34:51;18.92;;;6.85;;
54261;SDS011;40174;52.364;6.452;2023-10-19T05:37:18;13.68;;;6.40;;
54261;SDS011;40174;52.364;6.452;2023-10-19T05:39:47;18.10;;;7.20;;
54261;SDS011;40174;52.364;6.452;2023-10-19T05:42:16;14.57;;;6.60;;
54261;SDS011;40174;52.364;6.452;2023-10-19T05:44:45;19.73;;;7.25;;
54261;SDS011;40174;52.364;6.452;2023-10-19T05:47:11;14.75;;;6.75;;
54261;SDS011;40174;52.364;6.452;2023-10-19T05:49:39;15.82;;;6.88;;
54261;SDS011;40174;52.364;6.452;2023-10-19T05:52:06;16.27;;;6.93;;
54261;SDS011;40174;52.364;6.452;2023-10-19T05:54:33;15.63;;;6.95;;
54261;SDS011;40174;52.364;6.452;2023-10-19T05:57:02;13.35;;;6.47;;
54261;SDS011;40174;52.364;6.452;2023-10-19T05:59:33;16.25;;;6.32;;
54261;SDS011;40174;52.364;6.452;2023-10-19T06:02:03;14.50;;;6.55;;
54261;SDS011;40174;52.364;6.452;2023-10-19T06:04:32;12.35;;;6.38;;
54261;SDS011;40174;52.364;6.452;2023-10-19T06:07:00;15.90;;;5.43;;
54261;SDS011;40174;52.364;6.452;2023-10-19T06:09:27;14.63;;;5.90;;
54261;SDS011;40174;52.364;6.452;2023-10-19T06:11:56;17.13;;;6.60;;
54261;SDS011;40174;52.364;6.452;2023-10-19T06:14:23;15.43;;;6.10;;
54261;SDS011;40174;52.364;6.452;2023-10-19T06:16:50;14.30;;;6.25;;
54261;SDS011;40174;52.364;6.452;2023-10-19T06:19:19;13.02;;;6.05;;
54261;SDS011;40174;52.364;6.452;2023-10-19T06:21:46;15.60;;;5.72;;
54261;SDS011;40174;52.364;6.452;2023-10-19T06:24:12;17.48;;;5.60;;
54261;SDS011;40174;52.364;6.452;2023-10-19T06:26:41;15.73;;;5.78;;
54261;SDS011;40174;52.364;6.452;2023-10-19T06:29:08;20.65;;;6.28;;
54261;SDS011;40174;52.364;6.452;2023-10-19T06:31:36;14.82;;;5.72;;
54261;SDS011;40174;52.364;6.452;2023-10-19T06:34:03;13.95;;;5.85;;
54261;SDS011;40174;52.364;6.452;2023-10-19T06:36:32;14.85;;;6.30;;
54261;SDS011;40174;52.364;6.452;2023-10-19T06:38:59;18.20;;;6.05;;
54261;SDS011;40174;52.364;6.452;2023-10-19T06:41:31;15.18;;;5.32;;
54261;SDS011;40174;52.364;6.452;2023-10-19T06:43:59;14.05;;;5.22;;
54261;SDS011;40174;52.364;6.452;2023-10-19T06:46:27;12.73;;;5.55;;
54261;SDS011;40174;52.364;6.452;2023-10-19T06:48:56;11.95;;;4.43;;
54261;SDS011;40174;52.364;6.452;2023-10-19T06:51:25;11.85;;;5.13;;
54261;SDS011;40174;52.364;6.452;2023-10-19T06:53:55;12.73;;;5.35;;
54261;SDS011;40174;52.364;6.452;2023-10-19T06:56:23;16.95;;;5.60;;
54261;SDS011;40174;52.364;6.452;2023-10-19T06:58:52;14.75;;;5.72;;
54261;SDS011;40174;52.364;6.452;2023-10-19T07:01:19;16.55;;;5.93;;
54261;SDS011;40174;52.364;6.452;2023-10-19T07:03:51;15.20;;;5.70;;
54261;SDS011;40174;52.364;6.452;2023-10-19T07:06:19;15.15;;;5.13;;
54261;SDS011;40174;52.364;6.452;2023-10-19T07:08:46;18.63;;;5.60;;
54261;SDS011;40174;52.364;6.452;2023-10-19T07:11:15;12.80;;;5.32;;
54261;SDS011;40174;52.364;6.452;2023-10-19T07:13:43;15.57;;;5.53;;
54261;SDS011;40174;52.364;6.452;2023-10-19T07:16:11;13.80;;;5.40;;
54261;SDS011;40174;52.364;6.452;2023-10-19T07:18:38;14.25;;;5.90;;
54261;SDS011;40174;52.364;6.452;2023-10-19T07:21:05;12.45;;;5.10;;
54261;SDS011;40174;52.364;6.452;2023-10-19T07:23:34;14.85;;;5.95;;
54261;SDS011;40174;52.364;6.452;2023-10-19T07:26:03;12.90;;;5.05;;
54261;SDS011;40174;52.364;6.452;2023-10-19T07:28:33;16.27;;;5.22;;
54261;SDS011;40174;52.364;6.452;2023-10-19T07:31:00;12.65;;;5.38;;
54261;SDS011;40174;52.364;6.452;2023-10-19T07:33:29;15.50;;;4.88;;
54261;SDS011;40174;52.364;6.452;2023-10-19T07:35:56;13.18;;;4.53;;
54261;SDS011;40174;52.364;6.452;2023-10-19T07:38:25;13.02;;;5.45;;
54261;SDS011;40174;52.364;6.452;2023-10-19T07:40:54;11.85;;;4.80;;
54261;SDS011;40174;52.364;6.452;2023-10-19T07:43:21;13.95;;;5.45;;
54261;SDS011;40174;52.364;6.452;2023-10-19T07:45:50;15.05;;;4.82;;
54261;SDS011;40174;52.364;6.452;2023-10-19T07:48:17;14.30;;;5.28;;
54261;SDS011;40174;52.364;6.452;2023-10-19T07:50:44;14.38;;;4.45;;
54261;SDS011;40174;52.364;6.452;2023-10-19T07:53:11;13.15;;;5.05;;
54261;SDS011;40174;52.364;6.452;2023-10-19T07:55:38;13.43;;;5.85;;
54261;SDS011;40174;52.364;6.452;2023-10-19T07:58:08;13.52;;;5.40;;
54261;SDS011;40174;52.364;6.452;2023-10-19T08:00:36;12.98;;;5.20;;
54261;SDS011;40174;52.364;6.452;2023-10-19T08:03:05;10.30;;;4.60;;
54261;SDS011;40174;52.364;6.452;2023-10-19T08:05:35;16.40;;;5.40;;
54261;SDS011;40174;52.364;6.452;2023-10-19T08:08:04;13.27;;;5.32;;
54261;SDS011;40174;52.364;6.452;2023-10-19T08:10:31;10.70;;;5.50;;
54261;SDS011;40174;52.364;6.452;2023-10-19T08:12:59;10.75;;;4.82;;
54261;SDS011;40174;52.364;6.452;2023-10-19T08:15:27;12.13;;;4.95;;
54261;SDS011;40174;52.364;6.452;2023-10-19T08:17:55;13.23;;;5.55;;
54261;SDS011;40174;52.364;6.452;2023-10-19T08:20:24;10.00;;;4.63;;
54261;SDS011;40174;52.364;6.452;2023-10-19T08:22:55;17.20;;;4.90;;
54261;SDS011;40174;52.364;6.452;2023-10-19T08:25:23;10.95;;;4.35;;
54261;SDS011;40174;52.364;6.452;2023-10-19T08:27:52;17.25;;;5.35;;
54261;SDS011;40174;52.364;6.452;2023-10-19T08:30:22;14.27;;;4.82;;
54261;SDS011;40174;52.364;6.452;2023-10-19T08:32:50;13.75;;;4.57;;
54261;SDS011;40174;52.364;6.452;2023-10-19T08:35:19;13.75;;;4.72;;
54261;SDS011;40174;52.364;6.452;2023-10-19T08:37:51;11.07;;;4.32;;
54261;SDS011;40174;52.364;6.452;2023-10-19T08:40:18;10.25;;;4.05;;
54261;SDS011;40174;52.364;6.452;2023-10-19T08:42:47;9.65;;;4.05;;
54261;SDS011;40174;52.364;6.452;2023-10-19T08:45:16;11.07;;;4.55;;
54261;SDS011;40174;52.364;6.452;2023-10-19T08:47:43;12.55;;;4.45;;
54261;SDS011;40174;52.364;6.452;2023-10-19T08:50:15;9.50;;;3.55;;
54261;SDS011;40174;52.364;6.452;2023-10-19T08:52:46;13.90;;;4.40;;
54261;SDS011;40174;52.364;6.452;2023-10-19T08:55:16;12.65;;;4.10;;
54261;SDS011;40174;52.364;6.452;2023-10-19T08:57:43;8.88;;;3.88;;
54261;SDS011;40174;52.364;6.452;2023-10-19T09:00:12;12.60;;;3.38;;
54261;SDS011;40174;52.364;6.452;2023-10-19T09:02:43;8.07;;;3.30;;
54261;SDS011;40174;52.364;6.452;2023-10-19T09:05:10;14.52;;;3.67;;
54261;SDS011;40174;52.364;6.452;2023-10-19T09:07:45;9.27;;;3.67;;
54261;SDS011;40174;52.364;6.452;2023-10-19T09:10:21;7.60;;;3.33;;
54261;SDS011;40174;52.364;6.452;2023-10-19T09:13:00;9.93;;;3.35;;
54261;SDS011;40174;52.364;6.452;2023-10-19T09:15:29;11.88;;;4.85;;
54261;SDS011;40174;52.364;6.452;2023-10-19T09:17:57;5.90;;;2.47;;
54261;SDS011;40174;52.364;6.452;2023-10-19T09:20:24;7.85;;;2.97;;
54261;SDS011;40174;52.364;6.452;2023-10-19T09:22:54;8.75;;;3.25;;
54261;SDS011;40174;52.364;6.452;2023-10-19T09:25:24;8.48;;;3.85;;
54261;SDS011;40174;52.364;6.452;2023-10-19T09:27:51;7.80;;;2.92;;
54261;SDS011;40174;52.364;6.452;2023-10-19T09:30:19;9.85;;;3.13;;
54261;SDS011;40174;52.364;6.452;2023-10-19T09:32:46;10.75;;;2.83;;
54261;SDS011;40174;52.364;6.452;2023-10-19T09:35:14;10.65;;;3.45;;
54261;SDS011;40174;52.364;6.452;2023-10-19T09:37:42;9.93;;;2.60;;
54261;SDS011;40174;52.364;6.452;2023-10-19T09:40:09;8.60;;;2.97;;
54261;SDS011;40174;52.364;6.452;2023-10-19T09:42:40;9.88;;;2.90;;
54261;SDS011;40174;52.364;6.452;2023-10-19T09:45:11;6.80;;;3.05;;
54261;SDS011;40174;52.364;6.452;2023-10-19T09:47:45;14.40;;;2.92;;
54261;SDS011;40174;52.364;6.452;2023-10-19T09:50:16;6.07;;;2.25;;
54261;SDS011;40174;52.364;6.452;2023-10-19T09:52:43;8.40;;;3.53;;
54261;SDS011;40174;52.364;6.452;2023-10-19T09:55:12;7.75;;;3.20;;
54261;SDS011;40174;52.364;6.452;2023-10-19T09:57:47;7.55;;;3.10;;
54261;SDS011;40174;52.364;6.452;2023-10-19T10:00:18;11.63;;;3.22;;
54261;SDS011;40174;52.364;6.452;2023-10-19T10:02:49;7.00;;;2.15;;
54261;SDS011;40174;52.364;6.452;2023-10-19T10:08:32;9.07;;;2.28;;
54261;SDS011;40174;52.364;6.452;2023-10-19T10:11:19;6.13;;;2.40;;
54261;SDS011;40174;52.364;6.452;2023-10-19T10:13:49;7.97;;;3.25;;
54261;SDS011;40174;52.364;6.452;2023-10-19T10:16:17;8.13;;;2.35;;
54261;SDS011;40174;52.364;6.452;2023-10-19T10:18:46;12.43;;;3.95;;
54261;SDS011;40174;52.364;6.452;2023-10-19T10:21:16;7.68;;;2.58;;
54261;SDS011;40174;52.364;6.452;2023-10-19T10:23:48;6.57;;;2.42;;
54261;SDS011;40174;52.364;6.452;2023-10-19T10:26:18;7.97;;;2.45;;
54261;SDS011;40174;52.364;6.452;2023-10-19T10:29:08;5.10;;;2.15;;
54261;SDS011;40174;52.364;6.452;2023-10-19T10:31:43;7.43;;;2.38;;
54261;SDS011;40174;52.364;6.452;2023-10-19T10:34:11;6.63;;;2.45;;
54261;SDS011;40174;52.364;6.452;2023-10-19T10:36:59;8.25;;;2.40;;
54261;SDS011;40174;52.364;6.452;2023-10-19T10:39:27;5.45;;;2.20;;
54261;SDS011;40174;52.364;6.452;2023-10-19T10:41:55;12.50;;;2.83;;
54261;SDS011;40174;52.364;6.452;2023-10-19T10:44:38;8.23;;;2.05;;
54261;SDS011;40174;52.364;6.452;2023-10-19T10:47:06;6.93;;;2.63;;
54261;SDS011;40174;52.364;6.452;2023-10-19T10:49:35;6.30;;;2.42;;
54261;SDS011;40174;52.364;6.452;2023-10-19T10:52:13;6.03;;;1.90;;
54261;SDS011;40174;52.364;6.452;2023-10-19T10:54:41;12.13;;;2.45;;
54261;SDS011;40174;52.364;6.452;2023-10-19T10:57:08;9.35;;;2.42;;
54261;SDS011;40174;52.364;6.452;2023-10-19T10:59:35;8.10;;;2.15;;
54261;SDS011;40174;52.364;6.452;2023-10-19T11:02:08;7.57;;;2.05;;
54261;SDS011;40174;52.364;6.452;2023-10-19T11:04:43;6.25;;;1.90;;
54261;SDS011;40174;52.364;6.452;2023-10-19T11:07:17;8.57;;;2.03;;
54261;SDS011;40174;52.364;6.452;2023-10-19T11:09:45;8.00;;;1.50;;
54261;SDS011;40174;52.364;6.452;2023-10-19T11:12:15;7.53;;;1.77;;
54261;SDS011;40174;52.364;6.452;2023-10-19T11:14:51;7.13;;;1.45;;
54261;SDS011;40174;52.364;6.452;2023-10-19T11:17:22;4.20;;;2.10;;
54261;SDS011;40174;52.364;6.452;2023-10-19T11:19:54;4.65;;;1.67;;
54261;SDS011;40174;52.364;6.452;2023-10-19T11:22:22;11.07;;;1.95;;
54261;SDS011;40174;52.364;6.452;2023-10-19T11:24:51;4.60;;;1.42;;
54261;SDS011;40174;52.364;6.452;2023-10-19T11:27:23;2.97;;;1.30;;
54261;SDS011;40174;52.364;6.452;2023-10-19T11:29:53;6.18;;;0.98;;
54261;SDS011;40174;52.364;6.452;2023-10-19T11:32:23;3.92;;;1.27;;
54261;SDS011;40174;52.364;6.452;2023-10-19T11:34:53;2.08;;;1.02;;
54261;SDS011;40174;52.364;6.452;2023-10-19T11:37:21;3.35;;;1.02;;
54261;SDS011;40174;52.364;6.452;2023-10-19T11:39:49;4.88;;;1.48;;
54261;SDS011;40174;52.364;6.452;2023-10-19T11:42:17;4.63;;;1.00;;
54261;SDS011;40174;52.364;6.452;2023-10-19T11:44:45;3.22;;;1.27;;
54261;SDS011;40174;52.364;6.452;2023-10-19T11:47:12;3.70;;;1.17;;
54261;SDS011;40174;52.364;6.452;2023-10-19T11:49:41;4.15;;;1.48;;
54261;SDS011;40174;52.364;6.452;2023-10-19T11:52:08;3.50;;;1.25;;
54261;SDS011;40174;52.364;6.452;2023-10-19T11:54:36;2.22;;;0.95;;
54261;SDS011;40174;52.364;6.452;2023-10-19T11:57:03;4.55;;;1.20;;
54261;SDS011;40174;52.364;6.452;2023-10-19T11:59:32;4.65;;;1.65;;
54261;SDS011;40174;52.364;6.452;2023-10-19T12:01:58;3.40;;;1.48;;
54261;SDS011;40174;52.364;6.452;2023-10-19T12:04:29;1.88;;;0.80;;
54261;SDS011;40174;52.364;6.452;2023-10-19T12:07:02;5.00;;;0.82;;
54261;SDS011;40174;52.364;6.452;2023-10-19T12:09:30;4.38;;;0.93;;
54261;SDS011;40174;52.364;6.452;2023-10-19T12:11:58;1.83;;;0.90;;
54261;SDS011;40174;52.364;6.452;2023-10-19T12:14:25;3.85;;;1.20;;
54261;SDS011;40174;52.364;6.452;2023-10-19T12:16:52;5.85;;;1.00;;
54261;SDS011;40174;52.364;6.452;2023-10-19T12:19:20;1.77;;;0.95;;
54261;SDS011;40174;52.364;6.452;2023-10-19T12:21:47;4.97;;;1.08;;
54261;SDS011;40174;52.364;6.452;2023-10-19T12:24:16;4.75;;;1.23;;
54261;SDS011;40174;52.364;6.452;2023-10-19T12:26:45;1.77;;;0.65;;
54261;SDS011;40174;52.364;6.452;2023-10-19T12:29:12;5.05;;;1.35;;
54261;SDS011;40174;52.364;6.452;2023-10-19T12:31:42;3.40;;;0.90;;
54261;SDS011;40174;52.364;6.452;2023-10-19T12:34:09;3.05;;;0.70;;
54261;SDS011;40174;52.364;6.452;2023-10-19T12:36:37;3.33;;;0.80;;
54261;SDS011;40174;52.364;6.452;2023-10-19T12:39:04;5.82;;;1.17;;
54261;SDS011;40174;52.364;6.452;2023-10-19T12:41:33;7.18;;;1.05;;
54261;SDS011;40174;52.364;6.452;2023-10-19T12:44:01;3.47;;;1.15;;
54261;SDS011;40174;52.364;6.452;2023-10-19T12:46:33;6.18;;;1.60;;
54261;SDS011;40174;52.364;6.452;2023-10-19T12:49:02;9.07;;;1.67;;
54261;SDS011;40174;52.364;6.452;2023-10-19T12:51:33;2.90;;;1.13;;
54261;SDS011;40174;52.364;6.452;2023-10-19T12:54:01;2.15;;;1.30;;
54261;SDS011;40174;52.364;6.452;2023-10-19T12:56:28;3.33;;;1.15;;
54261;SDS011;40174;52.364;6.452;2023-10-19T12:59:00;5.63;;;0.98;;
54261;SDS011;40174;52.364;6.452;2023-10-19T13:01:27;4.45;;;0.88;;
54261;SDS011;40174;52.364;6.452;2023-10-19T13:03:58;3.10;;;0.80;;
54261;SDS011;40174;52.364;6.452;2023-10-19T13:06:31;4.20;;;0.65;;
54261;SDS011;40174;52.364;6.452;2023-10-19T13:09:00;6.72;;;1.33;;
54261;SDS011;40174;52.364;6.452;2023-10-19T13:11:28;5.07;;;1.08;;
54261;SDS011;40174;52.364;6.452;2023-10-19T13:13:57;3.85;;;0.68;;
54261;SDS011;40174;52.364;6.452;2023-10-19T13:16:27;7.60;;;1.13;;
54261;SDS011;40174;52.364;6.452;2023-10-19T13:18:56;1.48;;;0.75;;
54261;SDS011;40174;52.364;6.452;2023-10-19T13:21:23;4.25;;;0.80;;
54261;SDS011;40174;52.364;6.452;2023-10-19T13:23:57;2.05;;;0.68;;
54261;SDS011;40174;52.364;6.452;2023-10-19T13:26:26;3.92;;;0.80;;
54261;SDS011;40174;52.364;6.452;2023-10-19T13:28:53;2.33;;;0.85;;
54261;SDS011;40174;52.364;6.452;2023-10-19T13:31:21;4.10;;;0.90;;
54261;SDS011;40174;52.364;6.452;2023-10-19T13:33:50;4.95;;;0.90;;
54261;SDS011;40174;52.364;6.452;2023-10-19T13:36:17;3.50;;;0.65;;
54261;SDS011;40174;52.364;6.452;2023-10-19T13:38:44;4.53;;;1.10;;
54261;SDS011;40174;52.364;6.452;2023-10-19T13:41:11;1.80;;;0.47;;
54261;SDS011;40174;52.364;6.452;2023-10-19T13:43:41;1.83;;;0.75;;
54261;SDS011;40174;52.364;6.452;2023-10-19T13:46:09;4.22;;;0.88;;
54261;SDS011;40174;52.364;6.452;2023-10-19T13:48:36;2.88;;;0.70;;
54261;SDS011;40174;52.364;6.452;2023-10-19T13:51:06;1.20;;;0.73;;
54261;SDS011;40174;52.364;6.452;2023-10-19T13:53:38;2.35;;;0.60;;
54261;SDS011;40174;52.364;6.452;2023-10-19T13:56:09;1.80;;;0.60;;
54261;SDS011;40174;52.364;6.452;2023-10-19T13:58:36;3.75;;;0.65;;
54261;SDS011;40174;52.364;6.452;2023-10-19T14:01:06;5.80;;;0.70;;
54261;SDS011;40174;52.364;6.452;2023-10-19T14:03:34;3.25;;;0.60;;
54261;SDS011;40174;52.364;6.452;2023-10-19T14:06:03;4.43;;;0.55;;
54261;SDS011;40174;52.364;6.452;2023-10-19T14:08:32;2.47;;;0.80;;
54261;SDS011;40174;52.364;6.452;2023-10-19T14:11:02;2.08;;;0.60;;
54261;SDS011;40174;52.364;6.452;2023-10-19T14:13:30;4.03;;;0.60;;
54261;SDS011;40174;52.364;6.452;2023-10-19T14:15:58;1.23;;;0.52;;
54261;SDS011;40174;52.364;6.452;2023-10-19T14:18:26;5.70;;;1.08;;
54261;SDS011;40174;52.364;6.452;2023-10-19T14:20:54;2.45;;;0.75;;
54261;SDS011;40174;52.364;6.452;2023-10-19T14:23:21;2.45;;;0.65;;
54261;SDS011;40174;52.364;6.452;2023-10-19T14:25:51;0.82;;;0.60;;
54261;SDS011;40174;52.364;6.452;2023-10-19T14:28:18;8.00;;;1.08;;
54261;SDS011;40174;52.364;6.452;2023-10-19T14:30:45;2.53;;;0.65;;
54261;SDS011;40174;52.364;6.452;2023-10-19T14:33:15;1.75;;;0.77;;
54261;SDS011;40174;52.364;6.452;2023-10-19T14:35:44;2.30;;;0.95;;
54261;SDS011;40174;52.364;6.452;2023-10-19T14:38:11;4.32;;;1.05;;
54261;SDS011;40174;52.364;6.452;2023-10-19T14:40:40;5.88;;;1.05;;
54261;SDS011;40174;52.364;6.452;2023-10-19T14:43:14;1.55;;;0.90;;
54261;SDS011;40174;52.364;6.452;2023-10-19T14:45:41;6.35;;;1.08;;
54261;SDS011;40174;52.364;6.452;2023-10-19T14:48:09;1.33;;;0.82;;
54261;SDS011;40174;52.364;6.452;2023-10-19T14:50:37;1.98;;;1.05;;
54261;SDS011;40174;52.364;6.452;2023-10-19T14:53:05;6.32;;;1.27;;
54261;SDS011;40174;52.364;6.452;2023-10-19T14:55:32;4.50;;;0.95;;
54261;SDS011;40174;52.364;6.452;2023-10-19T14:57:59;2.70;;;0.88;;
54261;SDS011;40174;52.364;6.452;2023-10-19T15:00:28;4.15;;;1.40;;